sensor_id;sensor_type;location;lat;lon;timestamp;P1;durP1;ratioP1;P2;durP2;ratioP2
18152;SDS011;9202;51.578;7.734;2022-07-23T00:00:40;4.43;;;3.63;;
18152;SDS011;9202;51.578;7.734;2022-07-23T00:04:59;7.40;;;3.97;;
18152;SDS011;9202;51.578;7.734;2022-07-23T00:07:02;6.57;;;4.17;;
18152;SDS011;9202;51.578;7.734;2022-07-23T00:09:06;6.93;;;3.90;;
18152;SDS011;9202;51.578;7.734;2022-07-23T00:11:10;8.20;;;4.37;;
18152;SDS011;9202;51.578;7.734;2022-07-23T00:13:13;10.00;;;3.70;;
18152;SDS011;9202;51.578;7.734;2022-07-23T00:15:17;7.33;;;4.00;;
18152;SDS011;9202;51.578;7.734;2022-07-23T00:17:21;5.47;;;3.77;;
18152;SDS011;9202;51.578;7.734;2022-07-23T00:19:24;5.20;;;3.90;;
18152;SDS011;9202;51.578;7.734;2022-07-23T00:21:28;10.23;;;4.37;;
18152;SDS011;9202;51.578;7.734;2022-07-23T00:23:31;9.77;;;4.40;;
18152;SDS011;9202;51.578;7.734;2022-07-23T00:25:35;5.73;;;4.07;;
18152;SDS011;9202;51.578;7.734;2022-07-23T00:27:39;10.13;;;4.87;;
18152;SDS011;9202;51.578;7.734;2022-07-23T00:29:42;9.77;;;5.13;;
18152;SDS011;9202;51.578;7.734;2022-07-23T00:31:46;6.80;;;4.30;;
18152;SDS011;9202;51.578;7.734;2022-07-23T00:33:49;12.07;;;5.90;;
18152;SDS011;9202;51.578;7.734;2022-07-23T00:35:54;7.77;;;4.57;;
18152;SDS011;9202;51.578;7.734;2022-07-23T00:37:58;8.10;;;4.20;;
18152;SDS011;9202;51.578;7.734;2022-07-23T00:40:04;8.07;;;4.57;;
18152;SDS011;9202;51.578;7.734;2022-07-23T00:42:09;6.40;;;4.67;;
18152;SDS011;9202;51.578;7.734;2022-07-23T00:44:16;9.47;;;5.00;;
18152;SDS011;9202;51.578;7.734;2022-07-23T00:46:21;7.17;;;4.70;;
18152;SDS011;9202;51.578;7.734;2022-07-23T00:48:27;6.17;;;4.47;;
18152;SDS011;9202;51.578;7.734;2022-07-23T00:50:30;7.80;;;4.50;;
18152;SDS011;9202;51.578;7.734;2022-07-23T00:52:34;7.57;;;4.27;;
18152;SDS011;9202;51.578;7.734;2022-07-23T00:54:40;7.17;;;4.70;;
18152;SDS011;9202;51.578;7.734;2022-07-23T00:56:44;8.13;;;4.23;;
18152;SDS011;9202;51.578;7.734;2022-07-23T00:58:48;7.80;;;4.50;;
18152;SDS011;9202;51.578;7.734;2022-07-23T01:00:52;8.50;;;4.10;;
18152;SDS011;9202;51.578;7.734;2022-07-23T01:02:56;6.10;;;4.37;;
18152;SDS011;9202;51.578;7.734;2022-07-23T01:05:00;6.57;;;4.67;;
18152;SDS011;9202;51.578;7.734;2022-07-23T01:07:04;6.10;;;4.77;;
18152;SDS011;9202;51.578;7.734;2022-07-23T01:09:08;5.13;;;4.40;;
18152;SDS011;9202;51.578;7.734;2022-07-23T01:11:11;7.73;;;4.60;;
18152;SDS011;9202;51.578;7.734;2022-07-23T01:13:15;10.47;;;4.77;;
18152;SDS011;9202;51.578;7.734;2022-07-23T01:15:19;8.80;;;4.07;;
18152;SDS011;9202;51.578;7.734;2022-07-23T01:17:22;7.20;;;4.57;;
18152;SDS011;9202;51.578;7.734;2022-07-23T01:19:26;7.57;;;4.37;;
18152;SDS011;9202;51.578;7.734;2022-07-23T01:21:30;7.40;;;4.40;;
18152;SDS011;9202;51.578;7.734;2022-07-23T01:23:34;6.53;;;4.17;;
18152;SDS011;9202;51.578;7.734;2022-07-23T01:25:40;7.37;;;4.30;;
18152;SDS011;9202;51.578;7.734;2022-07-23T01:27:51;6.03;;;4.57;;
18152;SDS011;9202;51.578;7.734;2022-07-23T01:29:55;5.23;;;3.80;;
18152;SDS011;9202;51.578;7.734;2022-07-23T01:32:01;5.90;;;3.97;;
18152;SDS011;9202;51.578;7.734;2022-07-23T01:34:06;6.63;;;4.70;;
18152;SDS011;9202;51.578;7.734;2022-07-23T01:36:11;5.93;;;4.50;;
18152;SDS011;9202;51.578;7.734;2022-07-23T01:38:14;9.57;;;4.70;;
18152;SDS011;9202;51.578;7.734;2022-07-23T01:40:19;6.87;;;4.43;;
18152;SDS011;9202;51.578;7.734;2022-07-23T01:42:25;7.10;;;4.83;;
18152;SDS011;9202;51.578;7.734;2022-07-23T01:44:28;5.77;;;3.90;;
18152;SDS011;9202;51.578;7.734;2022-07-23T01:46:32;5.53;;;4.17;;
18152;SDS011;9202;51.578;7.734;2022-07-23T01:48:37;4.90;;;4.07;;
18152;SDS011;9202;51.578;7.734;2022-07-23T01:50:43;6.40;;;3.70;;
18152;SDS011;9202;51.578;7.734;2022-07-23T01:52:49;4.30;;;3.67;;
18152;SDS011;9202;51.578;7.734;2022-07-23T01:54:53;4.43;;;3.93;;
18152;SDS011;9202;51.578;7.734;2022-07-23T01:56:57;5.43;;;4.33;;
18152;SDS011;9202;51.578;7.734;2022-07-23T01:59:01;6.67;;;4.27;;
18152;SDS011;9202;51.578;7.734;2022-07-23T02:01:05;7.00;;;4.23;;
18152;SDS011;9202;51.578;7.734;2022-07-23T02:03:09;7.53;;;4.57;;
18152;SDS011;9202;51.578;7.734;2022-07-23T02:05:13;5.60;;;4.10;;
18152;SDS011;9202;51.578;7.734;2022-07-23T02:07:16;6.07;;;4.10;;
18152;SDS011;9202;51.578;7.734;2022-07-23T02:09:20;6.97;;;4.83;;
18152;SDS011;9202;51.578;7.734;2022-07-23T02:11:24;8.40;;;5.17;;
18152;SDS011;9202;51.578;7.734;2022-07-23T02:13:28;5.60;;;4.40;;
18152;SDS011;9202;51.578;7.734;2022-07-23T02:15:34;7.07;;;4.77;;
18152;SDS011;9202;51.578;7.734;2022-07-23T02:17:38;5.60;;;4.47;;
18152;SDS011;9202;51.578;7.734;2022-07-23T02:19:43;6.40;;;4.13;;
18152;SDS011;9202;51.578;7.734;2022-07-23T02:21:46;6.47;;;4.13;;
18152;SDS011;9202;51.578;7.734;2022-07-23T02:23:50;5.10;;;3.67;;
18152;SDS011;9202;51.578;7.734;2022-07-23T02:25:54;5.27;;;4.23;;
18152;SDS011;9202;51.578;7.734;2022-07-23T02:27:58;6.20;;;4.23;;
18152;SDS011;9202;51.578;7.734;2022-07-23T02:30:01;4.97;;;3.40;;
18152;SDS011;9202;51.578;7.734;2022-07-23T02:32:06;4.83;;;4.13;;
18152;SDS011;9202;51.578;7.734;2022-07-23T02:34:09;4.73;;;3.97;;
18152;SDS011;9202;51.578;7.734;2022-07-23T02:36:13;6.27;;;4.17;;
18152;SDS011;9202;51.578;7.734;2022-07-23T02:38:17;4.87;;;3.90;;
18152;SDS011;9202;51.578;7.734;2022-07-23T02:40:21;6.77;;;3.90;;
18152;SDS011;9202;51.578;7.734;2022-07-23T02:42:24;5.57;;;4.00;;
18152;SDS011;9202;51.578;7.734;2022-07-23T02:44:28;6.07;;;4.37;;
18152;SDS011;9202;51.578;7.734;2022-07-23T02:46:32;4.57;;;4.00;;
18152;SDS011;9202;51.578;7.734;2022-07-23T02:48:36;5.83;;;4.03;;
18152;SDS011;9202;51.578;7.734;2022-07-23T02:50:39;5.97;;;4.07;;
18152;SDS011;9202;51.578;7.734;2022-07-23T02:52:43;5.50;;;4.20;;
18152;SDS011;9202;51.578;7.734;2022-07-23T02:54:47;5.30;;;4.27;;
18152;SDS011;9202;51.578;7.734;2022-07-23T02:56:51;5.10;;;4.30;;
18152;SDS011;9202;51.578;7.734;2022-07-23T02:58:55;4.97;;;3.93;;
18152;SDS011;9202;51.578;7.734;2022-07-23T03:00:58;4.60;;;4.07;;
18152;SDS011;9202;51.578;7.734;2022-07-23T03:03:02;4.40;;;4.00;;
18152;SDS011;9202;51.578;7.734;2022-07-23T03:05:06;6.73;;;4.10;;
18152;SDS011;9202;51.578;7.734;2022-07-23T03:07:11;4.60;;;4.03;;
18152;SDS011;9202;51.578;7.734;2022-07-23T03:09:14;4.47;;;3.67;;
18152;SDS011;9202;51.578;7.734;2022-07-23T03:11:18;5.53;;;3.93;;
18152;SDS011;9202;51.578;7.734;2022-07-23T03:13:23;4.83;;;4.17;;
18152;SDS011;9202;51.578;7.734;2022-07-23T03:15:27;4.60;;;3.70;;
18152;SDS011;9202;51.578;7.734;2022-07-23T03:17:31;4.87;;;4.27;;
18152;SDS011;9202;51.578;7.734;2022-07-23T03:19:34;4.40;;;4.00;;
18152;SDS011;9202;51.578;7.734;2022-07-23T03:21:39;6.87;;;3.77;;
18152;SDS011;9202;51.578;7.734;2022-07-23T03:23:43;4.20;;;3.70;;
18152;SDS011;9202;51.578;7.734;2022-07-23T03:25:47;7.97;;;4.07;;
18152;SDS011;9202;51.578;7.734;2022-07-23T03:27:53;4.17;;;3.77;;
18152;SDS011;9202;51.578;7.734;2022-07-23T03:29:57;4.90;;;3.77;;
18152;SDS011;9202;51.578;7.734;2022-07-23T03:32:01;3.80;;;3.30;;
18152;SDS011;9202;51.578;7.734;2022-07-23T03:34:05;4.60;;;3.90;;
18152;SDS011;9202;51.578;7.734;2022-07-23T03:36:09;4.43;;;4.00;;
18152;SDS011;9202;51.578;7.734;2022-07-23T03:38:16;3.90;;;3.50;;
18152;SDS011;9202;51.578;7.734;2022-07-23T03:40:21;3.80;;;3.47;;
18152;SDS011;9202;51.578;7.734;2022-07-23T03:42:24;5.00;;;4.23;;
18152;SDS011;9202;51.578;7.734;2022-07-23T03:44:29;3.70;;;3.30;;
18152;SDS011;9202;51.578;7.734;2022-07-23T03:46:33;3.80;;;3.40;;
18152;SDS011;9202;51.578;7.734;2022-07-23T03:48:36;3.80;;;3.13;;
18152;SDS011;9202;51.578;7.734;2022-07-23T03:50:40;3.50;;;3.20;;
18152;SDS011;9202;51.578;7.734;2022-07-23T03:52:43;3.00;;;2.70;;
18152;SDS011;9202;51.578;7.734;2022-07-23T03:54:47;3.37;;;3.00;;
18152;SDS011;9202;51.578;7.734;2022-07-23T03:56:51;3.30;;;3.00;;
18152;SDS011;9202;51.578;7.734;2022-07-23T03:58:54;3.73;;;3.33;;
18152;SDS011;9202;51.578;7.734;2022-07-23T04:00:58;3.47;;;3.07;;
18152;SDS011;9202;51.578;7.734;2022-07-23T04:03:02;4.43;;;3.87;;
18152;SDS011;9202;51.578;7.734;2022-07-23T04:05:08;4.07;;;3.67;;
18152;SDS011;9202;51.578;7.734;2022-07-23T04:07:12;3.63;;;3.33;;
18152;SDS011;9202;51.578;7.734;2022-07-23T04:09:16;3.93;;;3.53;;
18152;SDS011;9202;51.578;7.734;2022-07-23T04:11:20;3.47;;;3.17;;
18152;SDS011;9202;51.578;7.734;2022-07-23T04:13:24;4.20;;;3.00;;
18152;SDS011;9202;51.578;7.734;2022-07-23T04:15:27;5.03;;;3.37;;
18152;SDS011;9202;51.578;7.734;2022-07-23T04:17:31;4.10;;;3.63;;
18152;SDS011;9202;51.578;7.734;2022-07-23T04:19:35;3.87;;;3.00;;
18152;SDS011;9202;51.578;7.734;2022-07-23T04:21:40;4.10;;;3.30;;
18152;SDS011;9202;51.578;7.734;2022-07-23T04:23:44;3.67;;;3.13;;
18152;SDS011;9202;51.578;7.734;2022-07-23T04:25:48;3.97;;;2.90;;
18152;SDS011;9202;51.578;7.734;2022-07-23T04:27:52;4.00;;;3.50;;
18152;SDS011;9202;51.578;7.734;2022-07-23T04:29:55;3.83;;;3.43;;
18152;SDS011;9202;51.578;7.734;2022-07-23T04:31:59;11.50;;;4.50;;
18152;SDS011;9202;51.578;7.734;2022-07-23T04:34:03;15.30;;;5.40;;
18152;SDS011;9202;51.578;7.734;2022-07-23T04:36:07;14.87;;;3.23;;
18152;SDS011;9202;51.578;7.734;2022-07-23T04:38:11;5.93;;;3.30;;
18152;SDS011;9202;51.578;7.734;2022-07-23T04:40:15;4.97;;;3.20;;
18152;SDS011;9202;51.578;7.734;2022-07-23T04:42:18;3.27;;;2.97;;
18152;SDS011;9202;51.578;7.734;2022-07-23T04:44:22;3.67;;;3.30;;
18152;SDS011;9202;51.578;7.734;2022-07-23T04:46:26;3.17;;;2.87;;
18152;SDS011;9202;51.578;7.734;2022-07-23T04:48:30;3.23;;;2.90;;
18152;SDS011;9202;51.578;7.734;2022-07-23T04:50:36;3.73;;;2.77;;
18152;SDS011;9202;51.578;7.734;2022-07-23T04:52:39;2.87;;;2.63;;
18152;SDS011;9202;51.578;7.734;2022-07-23T04:54:43;3.27;;;2.97;;
18152;SDS011;9202;51.578;7.734;2022-07-23T04:56:48;3.13;;;2.80;;
18152;SDS011;9202;51.578;7.734;2022-07-23T04:58:52;3.03;;;2.73;;
18152;SDS011;9202;51.578;7.734;2022-07-23T05:00:56;2.97;;;2.77;;
18152;SDS011;9202;51.578;7.734;2022-07-23T05:03:00;3.40;;;2.90;;
18152;SDS011;9202;51.578;7.734;2022-07-23T05:05:04;3.40;;;3.10;;
18152;SDS011;9202;51.578;7.734;2022-07-23T05:07:09;4.10;;;3.50;;
18152;SDS011;9202;51.578;7.734;2022-07-23T05:09:12;3.90;;;3.57;;
18152;SDS011;9202;51.578;7.734;2022-07-23T05:11:16;4.20;;;3.60;;
18152;SDS011;9202;51.578;7.734;2022-07-23T05:13:22;4.00;;;3.50;;
18152;SDS011;9202;51.578;7.734;2022-07-23T05:15:26;4.83;;;3.60;;
18152;SDS011;9202;51.578;7.734;2022-07-23T05:17:30;4.73;;;4.20;;
18152;SDS011;9202;51.578;7.734;2022-07-23T05:19:36;3.97;;;3.67;;
18152;SDS011;9202;51.578;7.734;2022-07-23T05:21:40;4.90;;;3.77;;
18152;SDS011;9202;51.578;7.734;2022-07-23T05:23:43;6.13;;;3.80;;
18152;SDS011;9202;51.578;7.734;2022-07-23T05:25:47;6.83;;;4.20;;
18152;SDS011;9202;51.578;7.734;2022-07-23T05:27:52;5.60;;;3.97;;
18152;SDS011;9202;51.578;7.734;2022-07-23T05:29:55;5.00;;;4.30;;
18152;SDS011;9202;51.578;7.734;2022-07-23T05:31:59;4.73;;;4.20;;
18152;SDS011;9202;51.578;7.734;2022-07-23T05:34:04;5.00;;;4.50;;
18152;SDS011;9202;51.578;7.734;2022-07-23T05:36:09;6.80;;;4.50;;
18152;SDS011;9202;51.578;7.734;2022-07-23T05:38:14;5.67;;;3.97;;
18152;SDS011;9202;51.578;7.734;2022-07-23T05:40:18;7.07;;;4.97;;
18152;SDS011;9202;51.578;7.734;2022-07-23T05:42:22;8.07;;;5.03;;
18152;SDS011;9202;51.578;7.734;2022-07-23T05:44:25;5.87;;;4.63;;
18152;SDS011;9202;51.578;7.734;2022-07-23T05:46:31;9.43;;;4.30;;
18152;SDS011;9202;51.578;7.734;2022-07-23T05:48:36;4.93;;;4.50;;
18152;SDS011;9202;51.578;7.734;2022-07-23T05:50:42;5.13;;;4.63;;
18152;SDS011;9202;51.578;7.734;2022-07-23T05:52:47;6.53;;;5.27;;
18152;SDS011;9202;51.578;7.734;2022-07-23T05:54:53;6.70;;;5.00;;
18152;SDS011;9202;51.578;7.734;2022-07-23T05:56:57;4.70;;;4.30;;
18152;SDS011;9202;51.578;7.734;2022-07-23T05:59:01;5.03;;;4.53;;
18152;SDS011;9202;51.578;7.734;2022-07-23T06:01:05;5.60;;;4.53;;
18152;SDS011;9202;51.578;7.734;2022-07-23T06:03:11;6.87;;;4.47;;
18152;SDS011;9202;51.578;7.734;2022-07-23T06:05:15;4.97;;;4.40;;
18152;SDS011;9202;51.578;7.734;2022-07-23T06:07:19;5.37;;;4.47;;
18152;SDS011;9202;51.578;7.734;2022-07-23T06:09:23;6.37;;;5.17;;
18152;SDS011;9202;51.578;7.734;2022-07-23T06:11:27;15.53;;;7.87;;
18152;SDS011;9202;51.578;7.734;2022-07-23T06:13:31;5.30;;;4.80;;
18152;SDS011;9202;51.578;7.734;2022-07-23T06:15:35;7.67;;;5.20;;
18152;SDS011;9202;51.578;7.734;2022-07-23T06:17:39;6.53;;;5.23;;
18152;SDS011;9202;51.578;7.734;2022-07-23T06:19:43;5.50;;;4.97;;
18152;SDS011;9202;51.578;7.734;2022-07-23T06:21:47;5.27;;;4.77;;
18152;SDS011;9202;51.578;7.734;2022-07-23T06:23:51;5.87;;;5.27;;
18152;SDS011;9202;51.578;7.734;2022-07-23T06:25:55;5.53;;;5.03;;
18152;SDS011;9202;51.578;7.734;2022-07-23T06:27:59;12.43;;;7.57;;
18152;SDS011;9202;51.578;7.734;2022-07-23T06:30:03;5.73;;;5.13;;
18152;SDS011;9202;51.578;7.734;2022-07-23T06:32:09;6.80;;;6.10;;
18152;SDS011;9202;51.578;7.734;2022-07-23T06:34:13;6.73;;;5.97;;
18152;SDS011;9202;51.578;7.734;2022-07-23T06:36:17;6.37;;;5.47;;
18152;SDS011;9202;51.578;7.734;2022-07-23T06:38:22;6.80;;;5.53;;
18152;SDS011;9202;51.578;7.734;2022-07-23T06:40:25;8.27;;;5.70;;
18152;SDS011;9202;51.578;7.734;2022-07-23T06:42:29;6.73;;;5.80;;
18152;SDS011;9202;51.578;7.734;2022-07-23T06:44:33;6.97;;;6.17;;
18152;SDS011;9202;51.578;7.734;2022-07-23T06:46:36;7.30;;;6.60;;
18152;SDS011;9202;51.578;7.734;2022-07-23T06:48:53;8.40;;;6.57;;
18152;SDS011;9202;51.578;7.734;2022-07-23T06:50:57;7.43;;;6.33;;
18152;SDS011;9202;51.578;7.734;2022-07-23T06:53:01;6.80;;;5.83;;
18152;SDS011;9202;51.578;7.734;2022-07-23T06:55:05;14.80;;;8.83;;
18152;SDS011;9202;51.578;7.734;2022-07-23T06:57:09;6.27;;;5.67;;
18152;SDS011;9202;51.578;7.734;2022-07-23T06:59:13;6.90;;;6.20;;
18152;SDS011;9202;51.578;7.734;2022-07-23T07:01:17;6.27;;;5.47;;
18152;SDS011;9202;51.578;7.734;2022-07-23T07:03:21;6.87;;;5.73;;
18152;SDS011;9202;51.578;7.734;2022-07-23T07:05:25;6.57;;;5.90;;
18152;SDS011;9202;51.578;7.734;2022-07-23T07:07:29;6.67;;;5.90;;
18152;SDS011;9202;51.578;7.734;2022-07-23T07:09:32;5.93;;;5.33;;
18152;SDS011;9202;51.578;7.734;2022-07-23T07:11:36;13.70;;;8.20;;
18152;SDS011;9202;51.578;7.734;2022-07-23T07:13:40;6.17;;;5.47;;
18152;SDS011;9202;51.578;7.734;2022-07-23T07:15:43;6.07;;;4.90;;
18152;SDS011;9202;51.578;7.734;2022-07-23T07:17:47;6.30;;;4.90;;
18152;SDS011;9202;51.578;7.734;2022-07-23T07:19:51;5.90;;;5.30;;
18152;SDS011;9202;51.578;7.734;2022-07-23T07:21:54;6.13;;;5.03;;
18152;SDS011;9202;51.578;7.734;2022-07-23T07:23:58;5.30;;;4.80;;
18152;SDS011;9202;51.578;7.734;2022-07-23T07:26:02;4.50;;;4.10;;
18152;SDS011;9202;51.578;7.734;2022-07-23T07:28:05;7.43;;;5.10;;
18152;SDS011;9202;51.578;7.734;2022-07-23T07:30:10;6.40;;;5.07;;
18152;SDS011;9202;51.578;7.734;2022-07-23T07:32:15;8.10;;;5.13;;
18152;SDS011;9202;51.578;7.734;2022-07-23T07:34:20;7.57;;;5.73;;
18152;SDS011;9202;51.578;7.734;2022-07-23T07:36:24;6.20;;;5.60;;
18152;SDS011;9202;51.578;7.734;2022-07-23T07:38:27;6.53;;;5.27;;
18152;SDS011;9202;51.578;7.734;2022-07-23T07:40:31;8.63;;;6.30;;
18152;SDS011;9202;51.578;7.734;2022-07-23T07:42:44;7.33;;;6.30;;
18152;SDS011;9202;51.578;7.734;2022-07-23T07:44:48;7.30;;;6.10;;
18152;SDS011;9202;51.578;7.734;2022-07-23T07:46:51;7.27;;;5.80;;
18152;SDS011;9202;51.578;7.734;2022-07-23T07:48:55;6.60;;;5.30;;
18152;SDS011;9202;51.578;7.734;2022-07-23T07:50:59;14.23;;;7.77;;
18152;SDS011;9202;51.578;7.734;2022-07-23T07:53:03;7.47;;;6.47;;
18152;SDS011;9202;51.578;7.734;2022-07-23T07:55:08;6.03;;;5.43;;
18152;SDS011;9202;51.578;7.734;2022-07-23T07:57:13;5.70;;;5.00;;
18152;SDS011;9202;51.578;7.734;2022-07-23T07:59:18;6.57;;;5.73;;
18152;SDS011;9202;51.578;7.734;2022-07-23T08:01:22;6.40;;;5.60;;
18152;SDS011;9202;51.578;7.734;2022-07-23T08:03:27;8.07;;;6.83;;
18152;SDS011;9202;51.578;7.734;2022-07-23T08:05:31;7.73;;;6.33;;
18152;SDS011;9202;51.578;7.734;2022-07-23T08:07:34;7.10;;;6.27;;
18152;SDS011;9202;51.578;7.734;2022-07-23T08:09:39;6.97;;;5.87;;
18152;SDS011;9202;51.578;7.734;2022-07-23T08:11:42;7.97;;;5.70;;
18152;SDS011;9202;51.578;7.734;2022-07-23T08:13:46;7.63;;;6.43;;
18152;SDS011;9202;51.578;7.734;2022-07-23T08:15:50;9.47;;;7.20;;
18152;SDS011;9202;51.578;7.734;2022-07-23T08:17:55;8.50;;;6.33;;
18152;SDS011;9202;51.578;7.734;2022-07-23T08:19:59;9.40;;;6.97;;
18152;SDS011;9202;51.578;7.734;2022-07-23T08:22:03;12.33;;;7.53;;
18152;SDS011;9202;51.578;7.734;2022-07-23T08:24:07;7.10;;;6.03;;
18152;SDS011;9202;51.578;7.734;2022-07-23T08:26:10;6.00;;;5.30;;
18152;SDS011;9202;51.578;7.734;2022-07-23T08:28:15;5.93;;;5.27;;
18152;SDS011;9202;51.578;7.734;2022-07-23T08:30:18;7.13;;;5.53;;
18152;SDS011;9202;51.578;7.734;2022-07-23T08:32:23;7.37;;;5.63;;
18152;SDS011;9202;51.578;7.734;2022-07-23T08:34:28;6.30;;;5.27;;
18152;SDS011;9202;51.578;7.734;2022-07-23T08:36:31;6.03;;;4.80;;
18152;SDS011;9202;51.578;7.734;2022-07-23T08:38:35;8.57;;;5.77;;
18152;SDS011;9202;51.578;7.734;2022-07-23T08:40:39;7.20;;;5.83;;
18152;SDS011;9202;51.578;7.734;2022-07-23T08:42:46;8.10;;;5.73;;
18152;SDS011;9202;51.578;7.734;2022-07-23T08:44:51;7.90;;;5.00;;
18152;SDS011;9202;51.578;7.734;2022-07-23T08:46:54;6.53;;;4.77;;
18152;SDS011;9202;51.578;7.734;2022-07-23T08:48:58;8.87;;;5.57;;
18152;SDS011;9202;51.578;7.734;2022-07-23T08:51:04;7.33;;;5.53;;
18152;SDS011;9202;51.578;7.734;2022-07-23T08:53:10;6.70;;;4.60;;
18152;SDS011;9202;51.578;7.734;2022-07-23T08:55:14;6.80;;;5.33;;
18152;SDS011;9202;51.578;7.734;2022-07-23T08:57:20;9.93;;;5.10;;
18152;SDS011;9202;51.578;7.734;2022-07-23T08:59:23;6.50;;;5.07;;
18152;SDS011;9202;51.578;7.734;2022-07-23T09:01:28;7.80;;;5.30;;
18152;SDS011;9202;51.578;7.734;2022-07-23T09:03:33;7.47;;;4.57;;
18152;SDS011;9202;51.578;7.734;2022-07-23T09:05:38;8.63;;;4.97;;
18152;SDS011;9202;51.578;7.734;2022-07-23T09:10:12;4.60;;;3.90;;
18152;SDS011;9202;51.578;7.734;2022-07-23T09:12:15;7.73;;;5.03;;
18152;SDS011;9202;51.578;7.734;2022-07-23T09:14:20;5.33;;;4.10;;
18152;SDS011;9202;51.578;7.734;2022-07-23T09:16:39;8.60;;;4.77;;
18152;SDS011;9202;51.578;7.734;2022-07-23T09:18:45;6.40;;;5.03;;
18152;SDS011;9202;51.578;7.734;2022-07-23T09:21:10;10.40;;;5.80;;
18152;SDS011;9202;51.578;7.734;2022-07-23T09:23:16;7.43;;;5.00;;
18152;SDS011;9202;51.578;7.734;2022-07-23T09:25:20;6.43;;;4.40;;
18152;SDS011;9202;51.578;7.734;2022-07-23T09:27:23;7.07;;;4.80;;
18152;SDS011;9202;51.578;7.734;2022-07-23T09:29:30;7.67;;;4.50;;
18152;SDS011;9202;51.578;7.734;2022-07-23T09:31:41;9.17;;;5.20;;
18152;SDS011;9202;51.578;7.734;2022-07-23T09:33:47;6.17;;;4.23;;
18152;SDS011;9202;51.578;7.734;2022-07-23T09:35:51;6.40;;;5.20;;
18152;SDS011;9202;51.578;7.734;2022-07-23T09:38:01;7.13;;;5.10;;
18152;SDS011;9202;51.578;7.734;2022-07-23T09:40:05;9.67;;;5.20;;
18152;SDS011;9202;51.578;7.734;2022-07-23T09:42:14;7.87;;;4.17;;
18152;SDS011;9202;51.578;7.734;2022-07-23T09:44:19;6.17;;;4.03;;
18152;SDS011;9202;51.578;7.734;2022-07-23T09:46:26;6.30;;;4.40;;
18152;SDS011;9202;51.578;7.734;2022-07-23T09:48:30;6.67;;;3.90;;
18152;SDS011;9202;51.578;7.734;2022-07-23T09:50:34;6.23;;;4.53;;
18152;SDS011;9202;51.578;7.734;2022-07-23T09:52:43;6.00;;;4.10;;
18152;SDS011;9202;51.578;7.734;2022-07-23T09:54:46;8.37;;;5.20;;
18152;SDS011;9202;51.578;7.734;2022-07-23T09:56:53;7.30;;;5.07;;
18152;SDS011;9202;51.578;7.734;2022-07-23T09:58:58;7.50;;;4.33;;
18152;SDS011;9202;51.578;7.734;2022-07-23T10:01:05;5.80;;;3.73;;
18152;SDS011;9202;51.578;7.734;2022-07-23T10:03:10;5.53;;;3.60;;
18152;SDS011;9202;51.578;7.734;2022-07-23T10:05:15;6.50;;;3.67;;
18152;SDS011;9202;51.578;7.734;2022-07-23T10:07:22;5.43;;;3.63;;
18152;SDS011;9202;51.578;7.734;2022-07-23T10:09:32;5.70;;;3.77;;
18152;SDS011;9202;51.578;7.734;2022-07-23T10:11:38;5.77;;;3.60;;
18152;SDS011;9202;51.578;7.734;2022-07-23T10:13:44;5.23;;;3.57;;
18152;SDS011;9202;51.578;7.734;2022-07-23T10:15:58;4.73;;;3.50;;
18152;SDS011;9202;51.578;7.734;2022-07-23T10:18:01;6.67;;;3.50;;
18152;SDS011;9202;51.578;7.734;2022-07-23T10:20:05;5.97;;;3.40;;
18152;SDS011;9202;51.578;7.734;2022-07-23T10:22:10;6.60;;;3.43;;
18152;SDS011;9202;51.578;7.734;2022-07-23T10:24:18;5.37;;;3.07;;
18152;SDS011;9202;51.578;7.734;2022-07-23T10:26:28;5.67;;;2.20;;
18152;SDS011;9202;51.578;7.734;2022-07-23T10:28:51;3.33;;;2.20;;
18152;SDS011;9202;51.578;7.734;2022-07-23T10:31:02;4.20;;;2.00;;
18152;SDS011;9202;51.578;7.734;2022-07-23T10:33:17;3.37;;;2.60;;
18152;SDS011;9202;51.578;7.734;2022-07-23T10:35:29;3.63;;;2.60;;
18152;SDS011;9202;51.578;7.734;2022-07-23T10:37:38;3.77;;;2.30;;
18152;SDS011;9202;51.578;7.734;2022-07-23T10:39:43;3.17;;;2.10;;
18152;SDS011;9202;51.578;7.734;2022-07-23T10:41:47;3.30;;;2.40;;
18152;SDS011;9202;51.578;7.734;2022-07-23T10:44:03;6.07;;;2.90;;
18152;SDS011;9202;51.578;7.734;2022-07-23T10:51:28;4.00;;;2.80;;
18152;SDS011;9202;51.578;7.734;2022-07-23T10:53:48;4.30;;;2.83;;
18152;SDS011;9202;51.578;7.734;2022-07-23T10:55:56;3.57;;;2.90;;
18152;SDS011;9202;51.578;7.734;2022-07-23T10:58:01;5.27;;;2.47;;
18152;SDS011;9202;51.578;7.734;2022-07-23T11:00:16;5.10;;;2.43;;
18152;SDS011;9202;51.578;7.734;2022-07-23T11:02:24;7.60;;;2.90;;
18152;SDS011;9202;51.578;7.734;2022-07-23T11:07:06;4.17;;;2.37;;
18152;SDS011;9202;51.578;7.734;2022-07-23T11:09:23;6.47;;;2.33;;
18152;SDS011;9202;51.578;7.734;2022-07-23T11:11:28;4.03;;;2.70;;
18152;SDS011;9202;51.578;7.734;2022-07-23T11:13:32;3.37;;;2.30;;
18152;SDS011;9202;51.578;7.734;2022-07-23T11:16:03;4.13;;;2.10;;
18152;SDS011;9202;51.578;7.734;2022-07-23T11:18:08;2.60;;;2.10;;
18152;SDS011;9202;51.578;7.734;2022-07-23T11:20:22;3.37;;;2.17;;
18152;SDS011;9202;51.578;7.734;2022-07-23T11:22:34;2.53;;;2.20;;
18152;SDS011;9202;51.578;7.734;2022-07-23T11:24:41;3.73;;;2.40;;
18152;SDS011;9202;51.578;7.734;2022-07-23T11:26:54;3.30;;;2.10;;
18152;SDS011;9202;51.578;7.734;2022-07-23T11:31:51;4.67;;;2.30;;
18152;SDS011;9202;51.578;7.734;2022-07-23T11:36:37;4.20;;;2.30;;
18152;SDS011;9202;51.578;7.734;2022-07-23T11:38:51;2.87;;;1.83;;
18152;SDS011;9202;51.578;7.734;2022-07-23T11:40:56;2.47;;;1.70;;
18152;SDS011;9202;51.578;7.734;2022-07-23T11:43:00;3.13;;;2.00;;
18152;SDS011;9202;51.578;7.734;2022-07-23T11:45:07;4.97;;;2.30;;
18152;SDS011;9202;51.578;7.734;2022-07-23T11:47:11;3.77;;;2.33;;
18152;SDS011;9202;51.578;7.734;2022-07-23T11:49:15;3.47;;;1.90;;
18152;SDS011;9202;51.578;7.734;2022-07-23T11:51:25;2.60;;;1.70;;
18152;SDS011;9202;51.578;7.734;2022-07-23T11:53:29;2.43;;;2.00;;
18152;SDS011;9202;51.578;7.734;2022-07-23T11:55:34;2.67;;;1.90;;
18152;SDS011;9202;51.578;7.734;2022-07-23T11:57:39;2.10;;;1.67;;
18152;SDS011;9202;51.578;7.734;2022-07-23T11:59:43;2.53;;;1.83;;
18152;SDS011;9202;51.578;7.734;2022-07-23T12:01:56;3.57;;;2.30;;
18152;SDS011;9202;51.578;7.734;2022-07-23T12:04:00;4.60;;;2.33;;
18152;SDS011;9202;51.578;7.734;2022-07-23T12:06:05;5.70;;;1.97;;
18152;SDS011;9202;51.578;7.734;2022-07-23T12:08:09;4.30;;;1.90;;
18152;SDS011;9202;51.578;7.734;2022-07-23T12:10:13;2.23;;;1.83;;
18152;SDS011;9202;51.578;7.734;2022-07-23T12:12:18;4.43;;;2.47;;
18152;SDS011;9202;51.578;7.734;2022-07-23T12:14:22;4.30;;;2.23;;
18152;SDS011;9202;51.578;7.734;2022-07-23T12:16:26;2.80;;;2.50;;
18152;SDS011;9202;51.578;7.734;2022-07-23T12:18:30;2.77;;;2.10;;
18152;SDS011;9202;51.578;7.734;2022-07-23T12:20:37;3.47;;;2.27;;
18152;SDS011;9202;51.578;7.734;2022-07-23T12:22:44;3.17;;;2.20;;
18152;SDS011;9202;51.578;7.734;2022-07-23T12:25:04;6.20;;;1.70;;
18152;SDS011;9202;51.578;7.734;2022-07-23T12:27:10;1.77;;;1.67;;
18152;SDS011;9202;51.578;7.734;2022-07-23T12:29:15;3.20;;;1.93;;
18152;SDS011;9202;51.578;7.734;2022-07-23T12:31:25;2.07;;;1.40;;
18152;SDS011;9202;51.578;7.734;2022-07-23T12:33:30;4.93;;;1.87;;
18152;SDS011;9202;51.578;7.734;2022-07-23T12:35:35;2.77;;;1.70;;
18152;SDS011;9202;51.578;7.734;2022-07-23T12:37:43;3.37;;;1.80;;
18152;SDS011;9202;51.578;7.734;2022-07-23T12:39:48;1.93;;;1.63;;
18152;SDS011;9202;51.578;7.734;2022-07-23T12:41:52;1.63;;;1.47;;
18152;SDS011;9202;51.578;7.734;2022-07-23T12:43:56;1.40;;;1.30;;
18152;SDS011;9202;51.578;7.734;2022-07-23T12:46:03;2.90;;;1.50;;
18152;SDS011;9202;51.578;7.734;2022-07-23T12:48:08;2.77;;;1.50;;
18152;SDS011;9202;51.578;7.734;2022-07-23T12:50:32;2.07;;;1.33;;
18152;SDS011;9202;51.578;7.734;2022-07-23T12:52:38;2.27;;;1.60;;
18152;SDS011;9202;51.578;7.734;2022-07-23T12:54:41;1.70;;;1.60;;
18152;SDS011;9202;51.578;7.734;2022-07-23T12:56:45;2.73;;;1.70;;
18152;SDS011;9202;51.578;7.734;2022-07-23T12:58:51;2.13;;;1.77;;
18152;SDS011;9202;51.578;7.734;2022-07-23T13:01:01;2.47;;;1.77;;
18152;SDS011;9202;51.578;7.734;2022-07-23T13:03:06;3.23;;;1.70;;